sensor_id;sensor_type;location;lat;lon;timestamp;P1;durP1;ratioP1;P2;durP2;ratioP2
46757;SDS011;32509;47.750;-3.396;2023-02-16T00:01:07;22.60;;;11.82;;
46757;SDS011;32509;47.750;-3.396;2023-02-16T00:03:38;27.17;;;14.43;;
46757;SDS011;32509;47.750;-3.396;2023-02-16T00:06:04;18.02;;;9.05;;
46757;SDS011;32509;47.750;-3.396;2023-02-16T00:08:30;21.58;;;10.10;;
46757;SDS011;32509;47.750;-3.396;2023-02-16T00:10:56;21.90;;;10.00;;
46757;SDS011;32509;47.750;-3.396;2023-02-16T00:13:40;30.63;;;13.23;;
46757;SDS011;32509;47.750;-3.396;2023-02-16T00:16:15;23.52;;;10.95;;
46757;SDS011;32509;47.750;-3.396;2023-02-16T00:18:42;36.00;;;12.30;;
46757;SDS011;32509;47.750;-3.396;2023-02-16T00:21:08;16.70;;;9.85;;
46757;SDS011;32509;47.750;-3.396;2023-02-16T00:23:34;23.83;;;10.77;;
46757;SDS011;32509;47.750;-3.396;2023-02-16T00:26:00;23.17;;;10.20;;
46757;SDS011;32509;47.750;-3.396;2023-02-16T00:28:27;22.73;;;10.55;;
46757;SDS011;32509;47.750;-3.396;2023-02-16T00:30:53;20.90;;;8.48;;
46757;SDS011;32509;47.750;-3.396;2023-02-16T00:33:19;20.38;;;9.75;;
46757;SDS011;32509;47.750;-3.396;2023-02-16T00:35:46;21.42;;;9.18;;
46757;SDS011;32509;47.750;-3.396;2023-02-16T00:38:12;22.80;;;8.27;;
46757;SDS011;32509;47.750;-3.396;2023-02-16T00:40:39;18.45;;;9.02;;
46757;SDS011;32509;47.750;-3.396;2023-02-16T00:43:05;17.17;;;7.85;;
46757;SDS011;32509;47.750;-3.396;2023-02-16T00:45:35;20.98;;;9.43;;
46757;SDS011;32509;47.750;-3.396;2023-02-16T00:48:01;19.42;;;9.23;;
46757;SDS011;32509;47.750;-3.396;2023-02-16T00:50:28;22.98;;;8.88;;
46757;SDS011;32509;47.750;-3.396;2023-02-16T00:52:55;18.85;;;7.20;;
46757;SDS011;32509;47.750;-3.396;2023-02-16T00:55:26;18.55;;;8.13;;
46757;SDS011;32509;47.750;-3.396;2023-02-16T00:57:54;17.33;;;7.97;;
46757;SDS011;32509;47.750;-3.396;2023-02-16T01:00:34;14.80;;;7.20;;
46757;SDS011;32509;47.750;-3.396;2023-02-16T01:03:04;20.88;;;7.28;;
46757;SDS011;32509;47.750;-3.396;2023-02-16T01:05:31;20.40;;;8.07;;
46757;SDS011;32509;47.750;-3.396;2023-02-16T01:07:57;13.35;;;6.35;;
46757;SDS011;32509;47.750;-3.396;2023-02-16T01:10:41;15.95;;;6.35;;
46757;SDS011;32509;47.750;-3.396;2023-02-16T01:13:38;20.17;;;7.05;;
46757;SDS011;32509;47.750;-3.396;2023-02-16T01:16:16;16.40;;;6.68;;
46757;SDS011;32509;47.750;-3.396;2023-02-16T01:18:44;12.32;;;5.53;;
46757;SDS011;32509;47.750;-3.396;2023-02-16T01:21:10;9.93;;;5.75;;
46757;SDS011;32509;47.750;-3.396;2023-02-16T01:23:36;13.40;;;5.10;;
46757;SDS011;32509;47.750;-3.396;2023-02-16T01:26:03;14.73;;;6.20;;
46757;SDS011;32509;47.750;-3.396;2023-02-16T01:28:29;17.67;;;6.13;;
46757;SDS011;32509;47.750;-3.396;2023-02-16T01:30:58;18.58;;;5.68;;
46757;SDS011;32509;47.750;-3.396;2023-02-16T01:33:24;12.73;;;5.25;;
46757;SDS011;32509;47.750;-3.396;2023-02-16T01:35:50;15.23;;;5.30;;
46757;SDS011;32509;47.750;-3.396;2023-02-16T01:38:19;18.15;;;5.88;;
46757;SDS011;32509;47.750;-3.396;2023-02-16T01:40:48;9.02;;;4.20;;
46757;SDS011;32509;47.750;-3.396;2023-02-16T01:43:18;13.25;;;4.50;;
46757;SDS011;32509;47.750;-3.396;2023-02-16T01:45:50;11.95;;;5.93;;
46757;SDS011;32509;47.750;-3.396;2023-02-16T01:48:21;9.20;;;3.35;;
46757;SDS011;32509;47.750;-3.396;2023-02-16T01:51:32;10.88;;;3.97;;
46757;SDS011;32509;47.750;-3.396;2023-02-16T01:53:39;7.38;;;3.08;;
46757;SDS011;32509;47.750;-3.396;2023-02-16T01:56:09;10.30;;;3.42;;
46757;SDS011;32509;47.750;-3.396;2023-02-16T01:58:49;11.07;;;3.28;;
46757;SDS011;32509;47.750;-3.396;2023-02-16T02:04:00;9.60;;;3.05;;
46757;SDS011;32509;47.750;-3.396;2023-02-16T02:06:45;9.13;;;2.70;;
46757;SDS011;32509;47.750;-3.396;2023-02-16T02:14:39;10.35;;;2.67;;
46757;SDS011;32509;47.750;-3.396;2023-02-16T02:17:07;7.88;;;2.67;;
46757;SDS011;32509;47.750;-3.396;2023-02-16T02:19:37;7.35;;;2.58;;
46757;SDS011;32509;47.750;-3.396;2023-02-16T02:27:43;19.08;;;2.28;;
46757;SDS011;32509;47.750;-3.396;2023-02-16T02:43:07;8.02;;;2.00;;
46757;SDS011;32509;47.750;-3.396;2023-02-16T02:45:43;9.32;;;1.83;;
46757;SDS011;32509;47.750;-3.396;2023-02-16T02:48:10;10.65;;;3.00;;
46757;SDS011;32509;47.750;-3.396;2023-02-16T02:53:34;5.88;;;1.88;;
46757;SDS011;32509;47.750;-3.396;2023-02-16T02:56:01;6.47;;;2.58;;
46757;SDS011;32509;47.750;-3.396;2023-02-16T02:58:46;10.32;;;2.42;;
46757;SDS011;32509;47.750;-3.396;2023-02-16T03:01:34;7.28;;;2.22;;
46757;SDS011;32509;47.750;-3.396;2023-02-16T03:04:01;8.38;;;1.73;;
46757;SDS011;32509;47.750;-3.396;2023-02-16T03:06:29;7.80;;;2.08;;
46757;SDS011;32509;47.750;-3.396;2023-02-16T03:08:59;9.50;;;2.10;;
46757;SDS011;32509;47.750;-3.396;2023-02-16T03:11:26;7.30;;;1.92;;
46757;SDS011;32509;47.750;-3.396;2023-02-16T03:16:41;5.40;;;1.30;;
46757;SDS011;32509;47.750;-3.396;2023-02-16T03:19:09;8.98;;;2.13;;
46757;SDS011;32509;47.750;-3.396;2023-02-16T03:21:56;4.40;;;1.33;;
46757;SDS011;32509;47.750;-3.396;2023-02-16T03:24:41;10.88;;;1.90;;
46757;SDS011;32509;47.750;-3.396;2023-02-16T03:27:27;8.05;;;2.05;;
46757;SDS011;32509;47.750;-3.396;2023-02-16T03:30:13;7.25;;;1.98;;
46757;SDS011;32509;47.750;-3.396;2023-02-16T03:32:40;19.33;;;3.45;;
46757;SDS011;32509;47.750;-3.396;2023-02-16T03:35:07;5.80;;;2.45;;
46757;SDS011;32509;47.750;-3.396;2023-02-16T03:37:36;9.40;;;2.15;;
46757;SDS011;32509;47.750;-3.396;2023-02-16T03:40:03;9.02;;;1.75;;
46757;SDS011;32509;47.750;-3.396;2023-02-16T03:42:48;8.05;;;3.20;;
46757;SDS011;32509;47.750;-3.396;2023-02-16T03:45:15;8.15;;;2.00;;
46757;SDS011;32509;47.750;-3.396;2023-02-16T03:47:41;12.27;;;2.28;;
46757;SDS011;32509;47.750;-3.396;2023-02-16T03:50:07;20.50;;;2.20;;
46757;SDS011;32509;47.750;-3.396;2023-02-16T03:52:33;8.27;;;1.67;;
46757;SDS011;32509;47.750;-3.396;2023-02-16T03:54:59;8.02;;;2.03;;
46757;SDS011;32509;47.750;-3.396;2023-02-16T03:57:25;6.50;;;1.67;;
46757;SDS011;32509;47.750;-3.396;2023-02-16T03:59:51;5.65;;;1.85;;
46757;SDS011;32509;47.750;-3.396;2023-02-16T04:02:18;8.25;;;1.52;;
46757;SDS011;32509;47.750;-3.396;2023-02-16T04:04:44;5.15;;;1.58;;
46757;SDS011;32509;47.750;-3.396;2023-02-16T04:07:10;4.07;;;1.33;;
46757;SDS011;32509;47.750;-3.396;2023-02-16T04:09:36;4.95;;;1.73;;
46757;SDS011;32509;47.750;-3.396;2023-02-16T04:12:03;7.68;;;1.67;;
46757;SDS011;32509;47.750;-3.396;2023-02-16T04:14:48;5.38;;;1.33;;
46757;SDS011;32509;47.750;-3.396;2023-02-16T04:17:14;6.35;;;1.27;;
46757;SDS011;32509;47.750;-3.396;2023-02-16T04:19:40;4.68;;;1.70;;
46757;SDS011;32509;47.750;-3.396;2023-02-16T04:22:06;5.43;;;1.05;;
46757;SDS011;32509;47.750;-3.396;2023-02-16T04:24:32;5.05;;;1.30;;
46757;SDS011;32509;47.750;-3.396;2023-02-16T04:26:58;2.70;;;1.58;;
46757;SDS011;32509;47.750;-3.396;2023-02-16T04:29:24;5.38;;;1.55;;
46757;SDS011;32509;47.750;-3.396;2023-02-16T04:31:50;3.70;;;1.13;;
46757;SDS011;32509;47.750;-3.396;2023-02-16T04:34:17;6.30;;;1.52;;
46757;SDS011;32509;47.750;-3.396;2023-02-16T04:36:43;4.78;;;1.20;;
46757;SDS011;32509;47.750;-3.396;2023-02-16T04:39:09;2.95;;;1.10;;
46757;SDS011;32509;47.750;-3.396;2023-02-16T04:41:35;2.83;;;1.95;;
46757;SDS011;32509;47.750;-3.396;2023-02-16T04:44:01;4.32;;;1.30;;
46757;SDS011;32509;47.750;-3.396;2023-02-16T04:46:27;5.40;;;1.27;;
46757;SDS011;32509;47.750;-3.396;2023-02-16T04:48:54;3.35;;;1.08;;
46757;SDS011;32509;47.750;-3.396;2023-02-16T04:51:20;4.88;;;2.08;;
46757;SDS011;32509;47.750;-3.396;2023-02-16T04:53:46;8.73;;;1.20;;
46757;SDS011;32509;47.750;-3.396;2023-02-16T04:56:12;2.97;;;1.27;;
46757;SDS011;32509;47.750;-3.396;2023-02-16T04:58:39;5.93;;;1.73;;
46757;SDS011;32509;47.750;-3.396;2023-02-16T05:01:05;3.33;;;0.90;;
46757;SDS011;32509;47.750;-3.396;2023-02-16T05:03:31;3.28;;;1.00;;
46757;SDS011;32509;47.750;-3.396;2023-02-16T05:05:57;6.70;;;1.20;;
46757;SDS011;32509;47.750;-3.396;2023-02-16T05:08:24;7.57;;;2.50;;
46757;SDS011;32509;47.750;-3.396;2023-02-16T05:10:50;4.60;;;1.40;;
46757;SDS011;32509;47.750;-3.396;2023-02-16T05:13:34;3.00;;;0.90;;
46757;SDS011;32509;47.750;-3.396;2023-02-16T05:16:20;3.53;;;1.50;;
46757;SDS011;32509;47.750;-3.396;2023-02-16T05:18:46;3.67;;;1.38;;
46757;SDS011;32509;47.750;-3.396;2023-02-16T05:21:13;4.03;;;1.20;;
46757;SDS011;32509;47.750;-3.396;2023-02-16T05:24:02;6.88;;;0.98;;
46757;SDS011;32509;47.750;-3.396;2023-02-16T05:26:28;5.45;;;1.20;;
46757;SDS011;32509;47.750;-3.396;2023-02-16T05:28:54;6.28;;;1.20;;
46757;SDS011;32509;47.750;-3.396;2023-02-16T05:31:21;5.38;;;1.55;;
46757;SDS011;32509;47.750;-3.396;2023-02-16T05:33:47;6.18;;;1.23;;
46757;SDS011;32509;47.750;-3.396;2023-02-16T05:36:13;3.13;;;1.00;;
46757;SDS011;32509;47.750;-3.396;2023-02-16T05:38:39;3.97;;;1.13;;
46757;SDS011;32509;47.750;-3.396;2023-02-16T05:41:05;6.90;;;1.30;;
46757;SDS011;32509;47.750;-3.396;2023-02-16T05:43:31;4.70;;;1.40;;
46757;SDS011;32509;47.750;-3.396;2023-02-16T05:45:57;3.83;;;1.50;;
46757;SDS011;32509;47.750;-3.396;2023-02-16T05:48:24;4.50;;;1.73;;
46757;SDS011;32509;47.750;-3.396;2023-02-16T05:50:52;8.00;;;1.42;;
46757;SDS011;32509;47.750;-3.396;2023-02-16T05:53:19;4.18;;;1.00;;
46757;SDS011;32509;47.750;-3.396;2023-02-16T05:55:45;4.88;;;1.67;;
46757;SDS011;32509;47.750;-3.396;2023-02-16T05:58:11;4.95;;;1.40;;
46757;SDS011;32509;47.750;-3.396;2023-02-16T06:00:37;12.52;;;1.58;;
46757;SDS011;32509;47.750;-3.396;2023-02-16T06:03:03;2.88;;;1.50;;
46757;SDS011;32509;47.750;-3.396;2023-02-16T06:05:29;6.45;;;1.50;;
46757;SDS011;32509;47.750;-3.396;2023-02-16T06:07:55;7.53;;;1.40;;
46757;SDS011;32509;47.750;-3.396;2023-02-16T06:10:21;6.97;;;1.40;;
46757;SDS011;32509;47.750;-3.396;2023-02-16T06:12:47;4.28;;;1.27;;
46757;SDS011;32509;47.750;-3.396;2023-02-16T06:15:13;6.50;;;1.40;;
46757;SDS011;32509;47.750;-3.396;2023-02-16T06:17:40;4.50;;;1.35;;
46757;SDS011;32509;47.750;-3.396;2023-02-16T06:20:08;7.72;;;2.25;;
46757;SDS011;32509;47.750;-3.396;2023-02-16T06:22:35;5.45;;;1.23;;
46757;SDS011;32509;47.750;-3.396;2023-02-16T06:25:01;6.95;;;1.50;;
46757;SDS011;32509;47.750;-3.396;2023-02-16T06:27:27;5.78;;;1.58;;
46757;SDS011;32509;47.750;-3.396;2023-02-16T06:29:53;5.00;;;1.20;;
46757;SDS011;32509;47.750;-3.396;2023-02-16T06:32:19;4.00;;;1.00;;
46757;SDS011;32509;47.750;-3.396;2023-02-16T06:34:45;4.65;;;1.35;;
46757;SDS011;32509;47.750;-3.396;2023-02-16T06:37:12;5.53;;;1.20;;
46757;SDS011;32509;47.750;-3.396;2023-02-16T06:39:38;7.38;;;1.80;;
46757;SDS011;32509;47.750;-3.396;2023-02-16T06:42:04;6.32;;;1.55;;
46757;SDS011;32509;47.750;-3.396;2023-02-16T06:44:30;7.05;;;1.35;;
46757;SDS011;32509;47.750;-3.396;2023-02-16T06:46:56;5.20;;;1.33;;
46757;SDS011;32509;47.750;-3.396;2023-02-16T06:49:22;6.68;;;1.40;;
46757;SDS011;32509;47.750;-3.396;2023-02-16T06:51:49;4.50;;;1.17;;
46757;SDS011;32509;47.750;-3.396;2023-02-16T06:54:16;7.80;;;1.23;;
46757;SDS011;32509;47.750;-3.396;2023-02-16T06:56:42;6.28;;;1.33;;
46757;SDS011;32509;47.750;-3.396;2023-02-16T06:59:10;9.05;;;1.40;;
46757;SDS011;32509;47.750;-3.396;2023-02-16T07:01:36;5.97;;;1.27;;
46757;SDS011;32509;47.750;-3.396;2023-02-16T07:04:02;3.25;;;1.20;;
46757;SDS011;32509;47.750;-3.396;2023-02-16T07:06:28;6.45;;;1.50;;
46757;SDS011;32509;47.750;-3.396;2023-02-16T07:08:55;3.17;;;1.10;;
46757;SDS011;32509;47.750;-3.396;2023-02-16T07:11:21;6.63;;;1.75;;
46757;SDS011;32509;47.750;-3.396;2023-02-16T07:13:47;4.15;;;1.58;;
46757;SDS011;32509;47.750;-3.396;2023-02-16T07:16:13;8.27;;;1.45;;
46757;SDS011;32509;47.750;-3.396;2023-02-16T07:18:39;8.07;;;1.52;;
46757;SDS011;32509;47.750;-3.396;2023-02-16T07:21:05;6.93;;;1.15;;
46757;SDS011;32509;47.750;-3.396;2023-02-16T07:23:32;4.75;;;1.38;;
46757;SDS011;32509;47.750;-3.396;2023-02-16T07:25:58;4.88;;;1.60;;
46757;SDS011;32509;47.750;-3.396;2023-02-16T07:28:24;7.28;;;1.42;;
46757;SDS011;32509;47.750;-3.396;2023-02-16T07:30:50;10.48;;;1.55;;
46757;SDS011;32509;47.750;-3.396;2023-02-16T07:33:17;15.35;;;2.80;;
46757;SDS011;32509;47.750;-3.396;2023-02-16T07:35:43;10.68;;;1.65;;
46757;SDS011;32509;47.750;-3.396;2023-02-16T07:38:09;7.40;;;2.50;;
46757;SDS011;32509;47.750;-3.396;2023-02-16T07:40:35;7.70;;;1.58;;
46757;SDS011;32509;47.750;-3.396;2023-02-16T07:43:02;8.65;;;2.30;;
46757;SDS011;32509;47.750;-3.396;2023-02-16T07:45:29;12.48;;;1.65;;
46757;SDS011;32509;47.750;-3.396;2023-02-16T07:47:59;8.20;;;1.67;;
46757;SDS011;32509;47.750;-3.396;2023-02-16T07:50:26;8.30;;;1.48;;
46757;SDS011;32509;47.750;-3.396;2023-02-16T07:52:52;13.10;;;2.20;;
46757;SDS011;32509;47.750;-3.396;2023-02-16T07:55:18;8.93;;;2.13;;
46757;SDS011;32509;47.750;-3.396;2023-02-16T07:57:44;5.22;;;1.38;;
46757;SDS011;32509;47.750;-3.396;2023-02-16T08:00:13;7.20;;;1.58;;
46757;SDS011;32509;47.750;-3.396;2023-02-16T08:02:39;5.55;;;1.42;;
46757;SDS011;32509;47.750;-3.396;2023-02-16T08:05:06;8.60;;;1.60;;
46757;SDS011;32509;47.750;-3.396;2023-02-16T08:07:32;10.30;;;1.70;;
46757;SDS011;32509;47.750;-3.396;2023-02-16T08:09:58;9.73;;;1.65;;
46757;SDS011;32509;47.750;-3.396;2023-02-16T08:12:25;5.65;;;1.42;;
46757;SDS011;32509;47.750;-3.396;2023-02-16T08:14:51;8.35;;;2.03;;
46757;SDS011;32509;47.750;-3.396;2023-02-16T08:17:17;11.07;;;2.67;;
46757;SDS011;32509;47.750;-3.396;2023-02-16T08:19:44;12.15;;;2.60;;
46757;SDS011;32509;47.750;-3.396;2023-02-16T08:22:10;8.68;;;1.88;;
46757;SDS011;32509;47.750;-3.396;2023-02-16T08:24:36;6.63;;;1.95;;
46757;SDS011;32509;47.750;-3.396;2023-02-16T08:27:03;8.80;;;1.60;;
46757;SDS011;32509;47.750;-3.396;2023-02-16T08:29:30;5.57;;;1.67;;
46757;SDS011;32509;47.750;-3.396;2023-02-16T08:31:56;9.63;;;1.77;;
46757;SDS011;32509;47.750;-3.396;2023-02-16T08:34:22;10.77;;;1.85;;
46757;SDS011;32509;47.750;-3.396;2023-02-16T08:36:52;10.13;;;1.88;;
46757;SDS011;32509;47.750;-3.396;2023-02-16T08:39:20;8.25;;;1.88;;
46757;SDS011;32509;47.750;-3.396;2023-02-16T08:41:47;8.82;;;2.70;;
46757;SDS011;32509;47.750;-3.396;2023-02-16T08:44:14;6.65;;;1.35;;
46757;SDS011;32509;47.750;-3.396;2023-02-16T08:46:41;14.02;;;2.88;;
46757;SDS011;32509;47.750;-3.396;2023-02-16T08:49:08;13.68;;;2.05;;
46757;SDS011;32509;47.750;-3.396;2023-02-16T08:51:36;6.93;;;2.08;;
46757;SDS011;32509;47.750;-3.396;2023-02-16T08:54:03;8.40;;;2.08;;
46757;SDS011;32509;47.750;-3.396;2023-02-16T08:56:29;6.43;;;1.95;;
46757;SDS011;32509;47.750;-3.396;2023-02-16T08:58:57;21.13;;;2.60;;
46757;SDS011;32509;47.750;-3.396;2023-02-16T09:01:23;8.77;;;2.22;;
46757;SDS011;32509;47.750;-3.396;2023-02-16T09:03:50;6.38;;;2.03;;
46757;SDS011;32509;47.750;-3.396;2023-02-16T09:06:18;4.63;;;1.38;;
46757;SDS011;32509;47.750;-3.396;2023-02-16T09:08:48;9.43;;;1.90;;
46757;SDS011;32509;47.750;-3.396;2023-02-16T09:11:16;17.27;;;2.47;;
46757;SDS011;32509;47.750;-3.396;2023-02-16T09:13:43;12.57;;;2.33;;
46757;SDS011;32509;47.750;-3.396;2023-02-16T09:16:14;7.00;;;1.85;;
46757;SDS011;32509;47.750;-3.396;2023-02-16T09:18:41;5.30;;;1.70;;
46757;SDS011;32509;47.750;-3.396;2023-02-16T09:21:16;9.52;;;1.98;;
46757;SDS011;32509;47.750;-3.396;2023-02-16T09:23:44;15.32;;;2.72;;
46757;SDS011;32509;47.750;-3.396;2023-02-16T09:26:12;6.45;;;1.83;;
46757;SDS011;32509;47.750;-3.396;2023-02-16T09:28:39;9.27;;;1.40;;
46757;SDS011;32509;47.750;-3.396;2023-02-16T09:33:35;10.27;;;2.40;;
46757;SDS011;32509;47.750;-3.396;2023-02-16T09:36:07;9.20;;;3.22;;
46757;SDS011;32509;47.750;-3.396;2023-02-16T09:38:34;9.40;;;2.73;;
46757;SDS011;32509;47.750;-3.396;2023-02-16T09:43:47;10.93;;;2.60;;
46757;SDS011;32509;47.750;-3.396;2023-02-16T09:46:14;20.55;;;5.95;;
46757;SDS011;32509;47.750;-3.396;2023-02-16T09:48:44;14.30;;;4.78;;
46757;SDS011;32509;47.750;-3.396;2023-02-16T09:51:15;12.05;;;3.33;;
46757;SDS011;32509;47.750;-3.396;2023-02-16T09:53:43;14.18;;;3.53;;
46757;SDS011;32509;47.750;-3.396;2023-02-16T09:56:16;10.07;;;2.67;;
46757;SDS011;32509;47.750;-3.396;2023-02-16T09:59:00;9.75;;;2.40;;
46757;SDS011;32509;47.750;-3.396;2023-02-16T10:06:55;10.48;;;3.05;;
46757;SDS011;32509;47.750;-3.396;2023-02-16T10:09:26;12.52;;;2.28;;
46757;SDS011;32509;47.750;-3.396;2023-02-16T10:11:57;9.63;;;2.65;;
46757;SDS011;32509;47.750;-3.396;2023-02-16T10:22:12;15.25;;;2.88;;
46757;SDS011;32509;47.750;-3.396;2023-02-16T10:24:55;9.73;;;1.98;;
46757;SDS011;32509;47.750;-3.396;2023-02-16T10:27:22;14.82;;;3.58;;
46757;SDS011;32509;47.750;-3.396;2023-02-16T10:29:51;18.08;;;3.42;;
46757;SDS011;32509;47.750;-3.396;2023-02-16T10:32:24;10.27;;;2.80;;
46757;SDS011;32509;47.750;-3.396;2023-02-16T10:40:01;13.55;;;2.85;;
46757;SDS011;32509;47.750;-3.396;2023-02-16T10:42:36;16.38;;;2.40;;
46757;SDS011;32509;47.750;-3.396;2023-02-16T10:47:50;17.60;;;3.20;;
46757;SDS011;32509;47.750;-3.396;2023-02-16T10:52:49;11.65;;;2.95;;
46757;SDS011;32509;47.750;-3.396;2023-02-16T10:55:17;21.30;;;4.10;;
46757;SDS011;32509;47.750;-3.396;2023-02-16T10:57:43;17.40;;;3.67;;
46757;SDS011;32509;47.750;-3.396;2023-02-16T11:00:15;15.23;;;3.17;;
46757;SDS011;32509;47.750;-3.396;2023-02-16T11:02:44;14.70;;;3.83;;
46757;SDS011;32509;47.750;-3.396;2023-02-16T11:07:57;18.15;;;3.72;;
46757;SDS011;32509;47.750;-3.396;2023-02-16T11:10:34;18.75;;;3.13;;
46757;SDS011;32509;47.750;-3.396;2023-02-16T11:13:00;14.48;;;4.05;;
46757;SDS011;32509;47.750;-3.396;2023-02-16T11:15:27;16.58;;;3.38;;
46757;SDS011;32509;47.750;-3.396;2023-02-16T11:20:30;16.05;;;2.95;;
46757;SDS011;32509;47.750;-3.396;2023-02-16T11:23:13;18.33;;;3.55;;
46757;SDS011;32509;47.750;-3.396;2023-02-16T11:25:40;15.73;;;4.30;;
46757;SDS011;32509;47.750;-3.396;2023-02-16T11:28:06;13.43;;;3.28;;
46757;SDS011;32509;47.750;-3.396;2023-02-16T11:30:36;11.30;;;3.33;;
46757;SDS011;32509;47.750;-3.396;2023-02-16T11:33:03;14.00;;;4.45;;
46757;SDS011;32509;47.750;-3.396;2023-02-16T11:35:31;11.15;;;3.00;;
46757;SDS011;32509;47.750;-3.396;2023-02-16T11:37:57;4.88;;;1.83;;
46757;SDS011;32509;47.750;-3.396;2023-02-16T11:40:28;14.32;;;3.45;;
46757;SDS011;32509;47.750;-3.396;2023-02-16T11:42:55;20.58;;;3.58;;
46757;SDS011;32509;47.750;-3.396;2023-02-16T11:45:27;10.75;;;3.28;;
46757;SDS011;32509;47.750;-3.396;2023-02-16T11:48:12;12.85;;;2.30;;
46757;SDS011;32509;47.750;-3.396;2023-02-16T11:50:40;11.73;;;2.58;;
46757;SDS011;32509;47.750;-3.396;2023-02-16T11:53:24;13.98;;;2.90;;
46757;SDS011;32509;47.750;-3.396;2023-02-16T11:55:51;8.50;;;2.90;;
46757;SDS011;32509;47.750;-3.396;2023-02-16T11:58:33;11.07;;;2.55;;
46757;SDS011;32509;47.750;-3.396;2023-02-16T12:11:46;12.38;;;2.95;;
46757;SDS011;32509;47.750;-3.396;2023-02-16T12:14:25;13.95;;;3.42;;
46757;SDS011;32509;47.750;-3.396;2023-02-16T12:17:36;14.18;;;3.03;;
46757;SDS011;32509;47.750;-3.396;2023-02-16T12:19:43;20.02;;;4.40;;
46757;SDS011;32509;47.750;-3.396;2023-02-16T12:27:03;16.70;;;3.15;;
46757;SDS011;32509;47.750;-3.396;2023-02-16T12:34:39;7.87;;;3.30;;
46757;SDS011;32509;47.750;-3.396;2023-02-16T12:40:15;8.15;;;2.10;;
46757;SDS011;32509;47.750;-3.396;2023-02-16T12:45:32;9.07;;;2.30;;
46757;SDS011;32509;47.750;-3.396;2023-02-16T12:50:27;11.05;;;2.75;;
46757;SDS011;32509;47.750;-3.396;2023-02-16T12:52:55;7.40;;;2.25;;
46757;SDS011;32509;47.750;-3.396;2023-02-16T12:55:38;13.85;;;2.42;;
46757;SDS011;32509;47.750;-3.396;2023-02-16T12:58:24;9.70;;;2.30;;
46757;SDS011;32509;47.750;-3.396;2023-02-16T13:00:53;17.77;;;2.90;;
46757;SDS011;32509;47.750;-3.396;2023-02-16T13:13:34;13.75;;;3.72;;
46757;SDS011;32509;47.750;-3.396;2023-02-16T13:18:43;6.55;;;2.40;;
46757;SDS011;32509;47.750;-3.396;2023-02-16T13:21:18;5.95;;;1.85;;
46757;SDS011;32509;47.750;-3.396;2023-02-16T13:23:51;8.88;;;2.58;;
46757;SDS011;32509;47.750;-3.396;2023-02-16T13:36:38;10.38;;;3.05;;
46757;SDS011;32509;47.750;-3.396;2023-02-16T13:39:11;5.35;;;2.42;;
46757;SDS011;32509;47.750;-3.396;2023-02-16T13:44:45;4.63;;;1.70;;
46757;SDS011;32509;47.750;-3.396;2023-02-16T13:47:13;6.65;;;2.53;;
46757;SDS011;32509;47.750;-3.396;2023-02-16T13:49:42;6.50;;;2.25;;
46757;SDS011;32509;47.750;-3.396;2023-02-16T13:54:57;9.18;;;2.88;;
46757;SDS011;32509;47.750;-3.396;2023-02-16T14:00:23;10.98;;;2.40;;
46757;SDS011;32509;47.750;-3.396;2023-02-16T14:02:54;9.50;;;2.25;;
46757;SDS011;32509;47.750;-3.396;2023-02-16T14:05:22;9.60;;;2.30;;
46757;SDS011;32509;47.750;-3.396;2023-02-16T14:08:00;5.50;;;2.55;;
46757;SDS011;32509;47.750;-3.396;2023-02-16T14:14:03;4.40;;;1.50;;
46757;SDS011;32509;47.750;-3.396;2023-02-16T14:16:08;10.23;;;1.98;;
46757;SDS011;32509;47.750;-3.396;2023-02-16T14:18:43;4.80;;;1.80;;
46757;SDS011;32509;47.750;-3.396;2023-02-16T14:21:43;7.55;;;2.15;;
46757;SDS011;32509;47.750;-3.396;2023-02-16T14:24:02;6.93;;;2.30;;
46757;SDS011;32509;47.750;-3.396;2023-02-16T14:26:30;8.30;;;3.42;;
46757;SDS011;32509;47.750;-3.396;2023-02-16T14:31:26;13.18;;;3.30;;
46757;SDS011;32509;47.750;-3.396;2023-02-16T14:36:20;7.60;;;2.85;;
46757;SDS011;32509;47.750;-3.396;2023-02-16T14:38:50;7.05;;;2.50;;
46757;SDS011;32509;47.750;-3.396;2023-02-16T14:43:50;4.40;;;1.88;;
46757;SDS011;32509;47.750;-3.396;2023-02-16T14:54:01;3.55;;;1.38;;
46757;SDS011;32509;47.750;-3.396;2023-02-16T14:56:38;8.77;;;1.98;;
46757;SDS011;32509;47.750;-3.396;2023-02-16T14:59:16;4.22;;;1.77;;
46757;SDS011;32509;47.750;-3.396;2023-02-16T15:01:44;5.47;;;1.80;;
46757;SDS011;32509;47.750;-3.396;2023-02-16T15:04:11;3.67;;;1.70;;
46757;SDS011;32509;47.750;-3.396;2023-02-16T15:06:38;4.10;;;1.85;;
46757;SDS011;32509;47.750;-3.396;2023-02-16T15:09:05;5.15;;;1.80;;
46757;SDS011;32509;47.750;-3.396;2023-02-16T15:11:40;5.22;;;1.90;;
46757;SDS011;32509;47.750;-3.396;2023-02-16T15:14:26;5.90;;;2.75;;
46757;SDS011;32509;47.750;-3.396;2023-02-16T15:16:54;2.75;;;1.88;;
46757;SDS011;32509;47.750;-3.396;2023-02-16T15:19:23;4.65;;;2.80;;
46757;SDS011;32509;47.750;-3.396;2023-02-16T15:22:07;6.20;;;2.95;;
46757;SDS011;32509;47.750;-3.396;2023-02-16T15:24:34;7.40;;;2.60;;
46757;SDS011;32509;47.750;-3.396;2023-02-16T15:27:00;6.95;;;3.03;;
46757;SDS011;32509;47.750;-3.396;2023-02-16T15:29:27;6.25;;;2.22;;
46757;SDS011;32509;47.750;-3.396;2023-02-16T15:31:53;5.65;;;2.00;;
46757;SDS011;32509;47.750;-3.396;2023-02-16T15:34:28;4.72;;;2.00;;
46757;SDS011;32509;47.750;-3.396;2023-02-16T15:36:57;4.25;;;2.22;;
46757;SDS011;32509;47.750;-3.396;2023-02-16T15:39:25;2.85;;;1.85;;
46757;SDS011;32509;47.750;-3.396;2023-02-16T15:41:52;6.15;;;2.20;;
46757;SDS011;32509;47.750;-3.396;2023-02-16T15:44:32;3.42;;;1.95;;
46757;SDS011;32509;47.750;-3.396;2023-02-16T15:49:32;3.55;;;1.92;;
46757;SDS011;32509;47.750;-3.396;2023-02-16T15:51:59;3.03;;;1.90;;
46757;SDS011;32509;47.750;-3.396;2023-02-16T15:54:26;2.38;;;1.67;;
46757;SDS011;32509;47.750;-3.396;2023-02-16T15:56:58;4.20;;;2.30;;
46757;SDS011;32509;47.750;-3.396;2023-02-16T15:59:34;2.47;;;2.00;;
46757;SDS011;32509;47.750;-3.396;2023-02-16T16:02:16;4.18;;;2.25;;
46757;SDS011;32509;47.750;-3.396;2023-02-16T16:04:45;3.30;;;1.83;;
46757;SDS011;32509;47.750;-3.396;2023-02-16T16:07:12;3.33;;;2.30;;
46757;SDS011;32509;47.750;-3.396;2023-02-16T16:09:39;3.53;;;1.65;;
46757;SDS011;32509;47.750;-3.396;2023-02-16T16:12:07;1.92;;;1.80;;
46757;SDS011;32509;47.750;-3.396;2023-02-16T16:14:37;3.05;;;1.50;;
46757;SDS011;32509;47.750;-3.396;2023-02-16T16:17:04;2.38;;;1.70;;
46757;SDS011;32509;47.750;-3.396;2023-02-16T16:19:33;7.25;;;2.28;;
46757;SDS011;32509;47.750;-3.396;2023-02-16T16:22:00;3.63;;;1.60;;
46757;SDS011;32509;47.750;-3.396;2023-02-16T16:24:29;5.43;;;1.77;;
46757;SDS011;32509;47.750;-3.396;2023-02-16T16:26:59;2.45;;;1.73;;
46757;SDS011;32509;47.750;-3.396;2023-02-16T16:31:58;2.17;;;1.73;;
46757;SDS011;32509;47.750;-3.396;2023-02-16T16:34:57;1.75;;;1.55;;
46757;SDS011;32509;47.750;-3.396;2023-02-16T16:42:27;2.88;;;2.40;;
46757;SDS011;32509;47.750;-3.396;2023-02-16T16:47:33;2.15;;;1.95;;
46757;SDS011;32509;47.750;-3.396;2023-02-16T16:50:01;2.88;;;1.35;;
46757;SDS011;32509;47.750;-3.396;2023-02-16T16:52:46;1.85;;;1.60;;
46757;SDS011;32509;47.750;-3.396;2023-02-16T16:57:59;2.20;;;2.00;;
46757;SDS011;32509;47.750;-3.396;2023-02-16T17:00:29;1.75;;;1.55;;
46757;SDS011;32509;47.750;-3.396;2023-02-16T17:02:57;2.63;;;2.00;;
46757;SDS011;32509;47.750;-3.396;2023-02-16T17:05:23;6.43;;;3.30;;
46757;SDS011;32509;47.750;-3.396;2023-02-16T17:07:49;7.38;;;2.78;;
46757;SDS011;32509;47.750;-3.396;2023-02-16T17:10:17;2.60;;;2.40;;
46757;SDS011;32509;47.750;-3.396;2023-02-16T17:12:43;2.85;;;2.25;;
46757;SDS011;32509;47.750;-3.396;2023-02-16T17:15:16;4.82;;;2.25;;
46757;SDS011;32509;47.750;-3.396;2023-02-16T17:17:45;5.65;;;2.85;;
46757;SDS011;32509;47.750;-3.396;2023-02-16T17:20:15;4.07;;;3.28;;
46757;SDS011;32509;47.750;-3.396;2023-02-16T17:22:41;2.47;;;2.28;;
46757;SDS011;32509;47.750;-3.396;2023-02-16T17:25:07;3.45;;;2.30;;